sensor_id;sensor_type;location;lat;lon;timestamp;temperature;humidity
53053;DHT22;38934;52.690;6.184;2022-09-09T00:02:33;13.90;99.90
53053;DHT22;38934;52.690;6.184;2022-09-09T00:05:29;13.90;99.90
53053;DHT22;38934;52.690;6.184;2022-09-09T00:07:59;14.00;99.90
53053;DHT22;38934;52.690;6.184;2022-09-09T00:10:37;13.90;99.90
53053;DHT22;38934;52.690;6.184;2022-09-09T00:15:46;14.00;99.90
53053;DHT22;38934;52.690;6.184;2022-09-09T00:21:13;14.00;99.90
53053;DHT22;38934;52.690;6.184;2022-09-09T00:26:35;14.00;99.90
53053;DHT22;38934;52.690;6.184;2022-09-09T00:29:21;14.10;99.90
53053;DHT22;38934;52.690;6.184;2022-09-09T00:31:51;14.10;99.90
53053;DHT22;38934;52.690;6.184;2022-09-09T00:34:24;14.10;99.90
53053;DHT22;38934;52.690;6.184;2022-09-09T00:36:53;14.10;99.90
53053;DHT22;38934;52.690;6.184;2022-09-09T00:39:31;14.10;99.90
53053;DHT22;38934;52.690;6.184;2022-09-09T00:45:18;14.20;99.90
53053;DHT22;38934;52.690;6.184;2022-09-09T00:47:49;14.20;99.90
53053;DHT22;38934;52.690;6.184;2022-09-09T00:50:46;14.30;99.90
53053;DHT22;38934;52.690;6.184;2022-09-09T00:53:32;14.30;99.90
53053;DHT22;38934;52.690;6.184;2022-09-09T00:56:13;14.30;99.90
53053;DHT22;38934;52.690;6.184;2022-09-09T00:58:42;14.30;99.90
53053;DHT22;38934;52.690;6.184;2022-09-09T01:01:13;14.30;99.90
53053;DHT22;38934;52.690;6.184;2022-09-09T01:08:36;14.40;99.90
53053;DHT22;38934;52.690;6.184;2022-09-09T01:11:12;14.40;99.90
53053;DHT22;38934;52.690;6.184;2022-09-09T01:13:42;14.40;99.90
53053;DHT22;38934;52.690;6.184;2022-09-09T01:16:12;14.40;99.90
53053;DHT22;38934;52.690;6.184;2022-09-09T01:18:44;14.50;99.90
53053;DHT22;38934;52.690;6.184;2022-09-09T01:26:44;14.50;99.90
53053;DHT22;38934;52.690;6.184;2022-09-09T01:29:13;14.60;99.90
53053;DHT22;38934;52.690;6.184;2022-09-09T01:34:17;15.00;99.90
53053;DHT22;38934;52.690;6.184;2022-09-09T01:36:44;15.00;99.90
53053;DHT22;38934;52.690;6.184;2022-09-09T01:39:12;14.50;99.90
53053;DHT22;38934;52.690;6.184;2022-09-09T01:41:38;14.50;99.90
53053;DHT22;38934;52.690;6.184;2022-09-09T01:44:05;14.50;99.90
53053;DHT22;38934;52.690;6.184;2022-09-09T01:46:31;14.50;99.90
53053;DHT22;38934;52.690;6.184;2022-09-09T01:48:57;14.50;99.90
53053;DHT22;38934;52.690;6.184;2022-09-09T01:51:24;14.50;99.90
53053;DHT22;38934;52.690;6.184;2022-09-09T01:53:50;14.50;99.90
53053;DHT22;38934;52.690;6.184;2022-09-09T01:57:36;14.50;99.90
53053;DHT22;38934;52.690;6.184;2022-09-09T02:05:26;14.50;99.90
53053;DHT22;38934;52.690;6.184;2022-09-09T02:08:09;14.50;99.90
53053;DHT22;38934;52.690;6.184;2022-09-09T02:10:56;14.50;99.90
53053;DHT22;38934;52.690;6.184;2022-09-09T02:13:25;14.50;99.90
53053;DHT22;38934;52.690;6.184;2022-09-09T02:16:13;14.50;99.90
53053;DHT22;38934;52.690;6.184;2022-09-09T02:19:01;14.50;99.90
53053;DHT22;38934;52.690;6.184;2022-09-09T02:21:30;14.50;99.90
53053;DHT22;38934;52.690;6.184;2022-09-09T02:23:58;14.50;99.90
53053;DHT22;38934;52.690;6.184;2022-09-09T02:26:26;14.50;99.90
53053;DHT22;38934;52.690;6.184;2022-09-09T02:28:55;14.50;99.90
53053;DHT22;38934;52.690;6.184;2022-09-09T02:31:24;14.50;99.90
53053;DHT22;38934;52.690;6.184;2022-09-09T02:33:59;14.50;99.90
53053;DHT22;38934;52.690;6.184;2022-09-09T02:36:29;14.50;99.90
53053;DHT22;38934;52.690;6.184;2022-09-09T02:38:56;14.50;99.90
53053;DHT22;38934;52.690;6.184;2022-09-09T02:41:37;14.50;99.90
53053;DHT22;38934;52.690;6.184;2022-09-09T02:44:11;14.40;99.90
53053;DHT22;38934;52.690;6.184;2022-09-09T02:46:42;14.60;99.90
53053;DHT22;38934;52.690;6.184;2022-09-09T02:49:16;14.50;99.90
53053;DHT22;38934;52.690;6.184;2022-09-09T02:56:47;14.50;99.90
53053;DHT22;38934;52.690;6.184;2022-09-09T02:59:15;14.50;99.90
53053;DHT22;38934;52.690;6.184;2022-09-09T03:01:41;14.50;99.90
53053;DHT22;38934;52.690;6.184;2022-09-09T03:04:07;14.50;99.90
53053;DHT22;38934;52.690;6.184;2022-09-09T03:06:33;14.50;99.90
53053;DHT22;38934;52.690;6.184;2022-09-09T03:08:58;14.50;99.90
53053;DHT22;38934;52.690;6.184;2022-09-09T03:11:27;14.50;99.90
53053;DHT22;38934;52.690;6.184;2022-09-09T03:13:53;14.50;99.90
53053;DHT22;38934;52.690;6.184;2022-09-09T03:16:21;14.40;99.90
53053;DHT22;38934;52.690;6.184;2022-09-09T03:18:47;14.50;99.90
53053;DHT22;38934;52.690;6.184;2022-09-09T03:21:13;14.40;99.90
53053;DHT22;38934;52.690;6.184;2022-09-09T03:23:39;14.50;99.90
53053;DHT22;38934;52.690;6.184;2022-09-09T03:26:04;14.40;99.90
53053;DHT22;38934;52.690;6.184;2022-09-09T03:28:30;14.40;99.90
53053;DHT22;38934;52.690;6.184;2022-09-09T03:31:00;14.40;99.90
53053;DHT22;38934;52.690;6.184;2022-09-09T03:33:26;14.40;99.90
53053;DHT22;38934;52.690;6.184;2022-09-09T03:35:53;14.30;99.90
53053;DHT22;38934;52.690;6.184;2022-09-09T03:38:18;14.30;99.90
53053;DHT22;38934;52.690;6.184;2022-09-09T03:40:54;14.30;99.90
53053;DHT22;38934;52.690;6.184;2022-09-09T03:43:21;14.30;99.90
53053;DHT22;38934;52.690;6.184;2022-09-09T03:45:47;14.20;99.90
53053;DHT22;38934;52.690;6.184;2022-09-09T03:48:14;14.20;99.90
53053;DHT22;38934;52.690;6.184;2022-09-09T03:50:47;14.20;99.90
53053;DHT22;38934;52.690;6.184;2022-09-09T03:53:15;14.20;99.90
53053;DHT22;38934;52.690;6.184;2022-09-09T03:55:44;14.10;99.90
53053;DHT22;38934;52.690;6.184;2022-09-09T03:58:11;14.10;99.90
53053;DHT22;38934;52.690;6.184;2022-09-09T04:00:37;14.10;99.90
53053;DHT22;38934;52.690;6.184;2022-09-09T04:03:05;14.00;99.90
53053;DHT22;38934;52.690;6.184;2022-09-09T04:05:31;14.10;99.90
53053;DHT22;38934;52.690;6.184;2022-09-09T04:07:59;14.00;99.90
53053;DHT22;38934;52.690;6.184;2022-09-09T04:10:24;14.00;99.90
53053;DHT22;38934;52.690;6.184;2022-09-09T04:12:50;14.00;99.90
53053;DHT22;38934;52.690;6.184;2022-09-09T04:15:15;13.90;99.90
53053;DHT22;38934;52.690;6.184;2022-09-09T04:17:41;14.60;99.90
53053;DHT22;38934;52.690;6.184;2022-09-09T04:20:07;13.90;99.90
53053;DHT22;38934;52.690;6.184;2022-09-09T04:22:36;14.20;99.90
53053;DHT22;38934;52.690;6.184;2022-09-09T04:25:05;13.90;99.90
53053;DHT22;38934;52.690;6.184;2022-09-09T04:27:31;13.90;99.90
53053;DHT22;38934;52.690;6.184;2022-09-09T04:29:57;13.80;99.90
53053;DHT22;38934;52.690;6.184;2022-09-09T04:32:22;13.80;99.90
53053;DHT22;38934;52.690;6.184;2022-09-09T04:34:48;13.80;99.90
53053;DHT22;38934;52.690;6.184;2022-09-09T04:37:14;13.80;99.90
53053;DHT22;38934;52.690;6.184;2022-09-09T04:39:39;13.70;99.90
53053;DHT22;38934;52.690;6.184;2022-09-09T04:42:05;13.70;99.90
53053;DHT22;38934;52.690;6.184;2022-09-09T04:44:31;13.70;99.90
53053;DHT22;38934;52.690;6.184;2022-09-09T04:46:56;13.70;99.90
53053;DHT22;38934;52.690;6.184;2022-09-09T04:49:22;13.70;99.90
53053;DHT22;38934;52.690;6.184;2022-09-09T04:51:49;13.80;99.90
53053;DHT22;38934;52.690;6.184;2022-09-09T04:54:15;13.70;99.90
53053;DHT22;38934;52.690;6.184;2022-09-09T04:56:40;13.80;99.90
53053;DHT22;38934;52.690;6.184;2022-09-09T04:59:07;13.80;99.90
53053;DHT22;38934;52.690;6.184;2022-09-09T05:01:33;13.80;99.90
53053;DHT22;38934;52.690;6.184;2022-09-09T05:03:59;13.80;99.90
53053;DHT22;38934;52.690;6.184;2022-09-09T05:06:25;13.80;99.90
53053;DHT22;38934;52.690;6.184;2022-09-09T05:08:50;13.80;99.90
53053;DHT22;38934;52.690;6.184;2022-09-09T05:11:20;13.80;99.90
53053;DHT22;38934;52.690;6.184;2022-09-09T05:13:46;13.80;99.90
53053;DHT22;38934;52.690;6.184;2022-09-09T05:16:13;13.80;99.90
53053;DHT22;38934;52.690;6.184;2022-09-09T05:18:42;13.80;99.90
53053;DHT22;38934;52.690;6.184;2022-09-09T05:21:08;13.80;99.90
53053;DHT22;38934;52.690;6.184;2022-09-09T05:23:35;13.80;99.90
53053;DHT22;38934;52.690;6.184;2022-09-09T05:26:01;13.80;99.90
53053;DHT22;38934;52.690;6.184;2022-09-09T05:28:27;13.80;99.90
53053;DHT22;38934;52.690;6.184;2022-09-09T05:33:24;13.80;99.90
53053;DHT22;38934;52.690;6.184;2022-09-09T05:36:08;13.80;99.90
53053;DHT22;38934;52.690;6.184;2022-09-09T05:38:36;13.90;99.90
53053;DHT22;38934;52.690;6.184;2022-09-09T05:41:02;13.80;99.90
53053;DHT22;38934;52.690;6.184;2022-09-09T05:43:28;13.90;99.90
53053;DHT22;38934;52.690;6.184;2022-09-09T05:48:38;13.80;99.90
53053;DHT22;38934;52.690;6.184;2022-09-09T05:51:04;13.80;99.90
53053;DHT22;38934;52.690;6.184;2022-09-09T05:53:32;13.90;99.90
53053;DHT22;38934;52.690;6.184;2022-09-09T05:56:10;14.20;99.90
53053;DHT22;38934;52.690;6.184;2022-09-09T05:58:37;13.90;99.90
53053;DHT22;38934;52.690;6.184;2022-09-09T06:01:08;14.00;99.90
53053;DHT22;38934;52.690;6.184;2022-09-09T06:03:36;13.90;99.90
53053;DHT22;38934;52.690;6.184;2022-09-09T06:06:04;13.90;99.90
53053;DHT22;38934;52.690;6.184;2022-09-09T06:08:32;14.00;99.90
53053;DHT22;38934;52.690;6.184;2022-09-09T06:11:04;14.00;99.90
53053;DHT22;38934;52.690;6.184;2022-09-09T06:13:31;14.10;99.90
53053;DHT22;38934;52.690;6.184;2022-09-09T06:15:57;14.10;99.90
53053;DHT22;38934;52.690;6.184;2022-09-09T06:18:24;14.30;99.90
53053;DHT22;38934;52.690;6.184;2022-09-09T06:20:58;14.20;99.90
53053;DHT22;38934;52.690;6.184;2022-09-09T06:23:25;14.20;99.90
53053;DHT22;38934;52.690;6.184;2022-09-09T06:25:51;14.20;99.90
53053;DHT22;38934;52.690;6.184;2022-09-09T06:28:17;14.20;99.90
53053;DHT22;38934;52.690;6.184;2022-09-09T06:30:44;14.30;99.90
53053;DHT22;38934;52.690;6.184;2022-09-09T06:33:10;14.50;99.90
53053;DHT22;38934;52.690;6.184;2022-09-09T06:35:35;14.60;99.90
53053;DHT22;38934;52.690;6.184;2022-09-09T06:38:01;14.60;99.90
53053;DHT22;38934;52.690;6.184;2022-09-09T06:40:26;14.70;99.90
53053;DHT22;38934;52.690;6.184;2022-09-09T06:42:52;14.70;99.90
53053;DHT22;38934;52.690;6.184;2022-09-09T06:45:18;14.80;99.90
53053;DHT22;38934;52.690;6.184;2022-09-09T06:47:44;14.70;99.90
53053;DHT22;38934;52.690;6.184;2022-09-09T06:50:10;14.80;99.90
53053;DHT22;38934;52.690;6.184;2022-09-09T06:52:36;14.80;99.90
53053;DHT22;38934;52.690;6.184;2022-09-09T06:55:03;14.90;99.90
53053;DHT22;38934;52.690;6.184;2022-09-09T06:57:29;14.90;99.90
53053;DHT22;38934;52.690;6.184;2022-09-09T06:59:54;14.90;99.90
53053;DHT22;38934;52.690;6.184;2022-09-09T07:02:20;15.00;99.90
53053;DHT22;38934;52.690;6.184;2022-09-09T07:04:46;15.00;99.90
53053;DHT22;38934;52.690;6.184;2022-09-09T07:07:12;15.00;99.90
53053;DHT22;38934;52.690;6.184;2022-09-09T07:09:40;15.00;99.90
53053;DHT22;38934;52.690;6.184;2022-09-09T07:12:06;15.10;99.90
53053;DHT22;38934;52.690;6.184;2022-09-09T07:14:32;15.10;99.90
53053;DHT22;38934;52.690;6.184;2022-09-09T07:16:59;15.20;99.90
53053;DHT22;38934;52.690;6.184;2022-09-09T07:19:25;15.20;99.90
53053;DHT22;38934;52.690;6.184;2022-09-09T07:21:51;15.20;99.90
53053;DHT22;38934;52.690;6.184;2022-09-09T07:24:17;15.20;99.90
53053;DHT22;38934;52.690;6.184;2022-09-09T07:26:43;15.20;99.90
53053;DHT22;38934;52.690;6.184;2022-09-09T07:29:09;15.20;99.90
53053;DHT22;38934;52.690;6.184;2022-09-09T07:31:37;15.20;99.90
53053;DHT22;38934;52.690;6.184;2022-09-09T07:34:04;15.30;99.90
53053;DHT22;38934;52.690;6.184;2022-09-09T07:36:32;15.30;99.90
53053;DHT22;38934;52.690;6.184;2022-09-09T07:39:00;15.30;99.90
53053;DHT22;38934;52.690;6.184;2022-09-09T07:41:32;15.40;99.90
53053;DHT22;38934;52.690;6.184;2022-09-09T07:44:03;15.30;99.90
53053;DHT22;38934;52.690;6.184;2022-09-09T07:46:29;15.40;99.90
53053;DHT22;38934;52.690;6.184;2022-09-09T07:48:56;15.40;99.90
53053;DHT22;38934;52.690;6.184;2022-09-09T07:51:24;15.40;99.90
53053;DHT22;38934;52.690;6.184;2022-09-09T07:53:59;15.50;99.90
53053;DHT22;38934;52.690;6.184;2022-09-09T07:56:26;15.60;99.90
53053;DHT22;38934;52.690;6.184;2022-09-09T07:58:53;15.60;99.90
53053;DHT22;38934;52.690;6.184;2022-09-09T08:01:23;15.60;99.90
53053;DHT22;38934;52.690;6.184;2022-09-09T08:03:57;15.70;99.90
53053;DHT22;38934;52.690;6.184;2022-09-09T08:06:25;15.80;99.90
53053;DHT22;38934;52.690;6.184;2022-09-09T08:08:52;15.90;99.90
53053;DHT22;38934;52.690;6.184;2022-09-09T08:11:18;16.00;99.90
53053;DHT22;38934;52.690;6.184;2022-09-09T08:13:44;16.10;99.90
53053;DHT22;38934;52.690;6.184;2022-09-09T08:16:15;16.20;99.90
53053;DHT22;38934;52.690;6.184;2022-09-09T08:18:42;16.40;99.90
53053;DHT22;38934;52.690;6.184;2022-09-09T08:21:15;16.40;99.90
53053;DHT22;38934;52.690;6.184;2022-09-09T08:23:44;16.60;99.90
53053;DHT22;38934;52.690;6.184;2022-09-09T08:26:15;16.70;99.90
53053;DHT22;38934;52.690;6.184;2022-09-09T08:28:42;16.80;99.90
53053;DHT22;38934;52.690;6.184;2022-09-09T08:33:44;17.00;99.90
53053;DHT22;38934;52.690;6.184;2022-09-09T08:36:17;17.20;99.90
53053;DHT22;38934;52.690;6.184;2022-09-09T08:38:43;17.30;99.90
53053;DHT22;38934;52.690;6.184;2022-09-09T08:55:23;17.30;99.90
53053;DHT22;38934;52.690;6.184;2022-09-09T08:57:52;17.50;99.90
53053;DHT22;38934;52.690;6.184;2022-09-09T09:00:20;17.50;99.90
53053;DHT22;38934;52.690;6.184;2022-09-09T09:06:26;17.70;99.90
53053;DHT22;38934;52.690;6.184;2022-09-09T09:09:01;17.70;99.90
53053;DHT22;38934;52.690;6.184;2022-09-09T09:11:41;17.70;99.90
53053;DHT22;38934;52.690;6.184;2022-09-09T09:19:19;17.70;99.90
53053;DHT22;38934;52.690;6.184;2022-09-09T09:24:47;17.60;99.90
53053;DHT22;38934;52.690;6.184;2022-09-09T09:27:57;17.70;99.90
53053;DHT22;38934;52.690;6.184;2022-09-09T09:30:31;17.70;99.90
53053;DHT22;38934;52.690;6.184;2022-09-09T09:33:00;17.90;99.90
53053;DHT22;38934;52.690;6.184;2022-09-09T09:35:27;18.00;99.90
53053;DHT22;38934;52.690;6.184;2022-09-09T09:37:53;18.10;99.90
53053;DHT22;38934;52.690;6.184;2022-09-09T09:40:21;18.10;99.90
53053;DHT22;38934;52.690;6.184;2022-09-09T09:42:55;18.20;99.90
53053;DHT22;38934;52.690;6.184;2022-09-09T09:45:41;18.20;99.90
53053;DHT22;38934;52.690;6.184;2022-09-09T09:48:12;18.30;99.90
53053;DHT22;38934;52.690;6.184;2022-09-09T09:51:07;18.30;99.90
53053;DHT22;38934;52.690;6.184;2022-09-09T09:53:36;18.20;99.90
53053;DHT22;38934;52.690;6.184;2022-09-09T09:56:06;18.20;99.90
53053;DHT22;38934;52.690;6.184;2022-09-09T10:03:54;18.10;99.90
53053;DHT22;38934;52.690;6.184;2022-09-09T10:06:36;18.20;99.90
53053;DHT22;38934;52.690;6.184;2022-09-09T10:09:17;18.10;99.90
53053;DHT22;38934;52.690;6.184;2022-09-09T10:14:41;18.10;99.90
53053;DHT22;38934;52.690;6.184;2022-09-09T10:19:47;18.00;99.90
53053;DHT22;38934;52.690;6.184;2022-09-09T10:22:34;18.00;99.90
53053;DHT22;38934;52.690;6.184;2022-09-09T10:34:11;17.90;99.90
53053;DHT22;38934;52.690;6.184;2022-09-09T10:36:46;17.90;99.90
53053;DHT22;38934;52.690;6.184;2022-09-09T10:41:42;18.10;99.90
53053;DHT22;38934;52.690;6.184;2022-09-09T10:52:58;18.10;99.90
53053;DHT22;38934;52.690;6.184;2022-09-09T10:55:35;18.40;99.90
53053;DHT22;38934;52.690;6.184;2022-09-09T10:58:03;18.00;99.90
53053;DHT22;38934;52.690;6.184;2022-09-09T11:00:38;18.10;99.90
53053;DHT22;38934;52.690;6.184;2022-09-09T11:03:05;18.20;99.90
53053;DHT22;38934;52.690;6.184;2022-09-09T11:06:04;18.20;99.90
53053;DHT22;38934;52.690;6.184;2022-09-09T11:08:31;18.30;99.90
53053;DHT22;38934;52.690;6.184;2022-09-09T11:11:11;18.40;99.90
53053;DHT22;38934;52.690;6.184;2022-09-09T11:21:50;19.30;99.90
53053;DHT22;38934;52.690;6.184;2022-09-09T11:24:28;19.50;99.90
53053;DHT22;38934;52.690;6.184;2022-09-09T11:27:02;19.70;99.90
53053;DHT22;38934;52.690;6.184;2022-09-09T11:29:56;19.90;99.90
53053;DHT22;38934;52.690;6.184;2022-09-09T11:33:07;20.00;99.90
53053;DHT22;38934;52.690;6.184;2022-09-09T11:38:47;20.40;99.90
53053;DHT22;38934;52.690;6.184;2022-09-09T11:41:17;20.30;99.90
53053;DHT22;38934;52.690;6.184;2022-09-09T11:43:51;20.30;99.90
53053;DHT22;38934;52.690;6.184;2022-09-09T11:46:20;20.30;99.90
53053;DHT22;38934;52.690;6.184;2022-09-09T11:49:06;20.40;99.90
53053;DHT22;38934;52.690;6.184;2022-09-09T11:51:48;20.40;99.90
53053;DHT22;38934;52.690;6.184;2022-09-09T11:54:47;20.30;99.90
53053;DHT22;38934;52.690;6.184;2022-09-09T11:57:32;20.10;99.90
53053;DHT22;38934;52.690;6.184;2022-09-09T11:59:59;19.90;99.90
53053;DHT22;38934;52.690;6.184;2022-09-09T12:02:29;19.80;99.90
53053;DHT22;38934;52.690;6.184;2022-09-09T12:05:13;19.70;99.90
53053;DHT22;38934;52.690;6.184;2022-09-09T12:07:41;19.70;99.90
53053;DHT22;38934;52.690;6.184;2022-09-09T12:10:32;19.50;99.90
53053;DHT22;38934;52.690;6.184;2022-09-09T12:13:21;19.60;99.90
53053;DHT22;38934;52.690;6.184;2022-09-09T12:15:53;19.70;99.90
53053;DHT22;38934;52.690;6.184;2022-09-09T12:18:26;19.90;99.90
53053;DHT22;38934;52.690;6.184;2022-09-09T12:21:16;20.20;99.90
53053;DHT22;38934;52.690;6.184;2022-09-09T12:23:57;20.30;99.90
53053;DHT22;38934;52.690;6.184;2022-09-09T12:26:43;20.40;99.90
53053;DHT22;38934;52.690;6.184;2022-09-09T12:29:43;20.40;99.90
53053;DHT22;38934;52.690;6.184;2022-09-09T12:32:14;20.30;99.90
53053;DHT22;38934;52.690;6.184;2022-09-09T12:34:58;20.20;99.90
53053;DHT22;38934;52.690;6.184;2022-09-09T12:37:37;20.20;99.90
53053;DHT22;38934;52.690;6.184;2022-09-09T12:40:06;20.50;99.90
53053;DHT22;38934;52.690;6.184;2022-09-09T12:42:43;20.20;99.90
53053;DHT22;38934;52.690;6.184;2022-09-09T12:45:20;20.10;99.90
53053;DHT22;38934;52.690;6.184;2022-09-09T12:47:57;19.80;99.90
53053;DHT22;38934;52.690;6.184;2022-09-09T12:50:27;19.70;99.90
53053;DHT22;38934;52.690;6.184;2022-09-09T12:53:04;19.50;99.90
53053;DHT22;38934;52.690;6.184;2022-09-09T12:55:36;19.40;99.90
53053;DHT22;38934;52.690;6.184;2022-09-09T12:58:03;19.60;99.90
53053;DHT22;38934;52.690;6.184;2022-09-09T13:00:31;19.70;99.90
53053;DHT22;38934;52.690;6.184;2022-09-09T13:02:59;19.80;99.90
53053;DHT22;38934;52.690;6.184;2022-09-09T13:05:28;19.80;99.90
53053;DHT22;38934;52.690;6.184;2022-09-09T13:08:06;19.60;99.90
53053;DHT22;38934;52.690;6.184;2022-09-09T13:10:36;19.40;99.90
53053;DHT22;38934;52.690;6.184;2022-09-09T13:13:14;19.20;99.90
53053;DHT22;38934;52.690;6.184;2022-09-09T13:15:40;19.10;99.90
53053;DHT22;38934;52.690;6.184;2022-09-09T13:18:20;19.40;99.90
53053;DHT22;38934;52.690;6.184;2022-09-09T13:20:47;19.50;99.90
53053;DHT22;38934;52.690;6.184;2022-09-09T13:23:15;19.70;99.90
53053;DHT22;38934;52.690;6.184;2022-09-09T13:26:02;19.60;99.90
53053;DHT22;38934;52.690;6.184;2022-09-09T13:28:30;19.60;99.90
53053;DHT22;38934;52.690;6.184;2022-09-09T13:31:00;19.70;99.90
53053;DHT22;38934;52.690;6.184;2022-09-09T13:35:57;19.40;99.90
53053;DHT22;38934;52.690;6.184;2022-09-09T13:38:24;19.30;99.90
53053;DHT22;38934;52.690;6.184;2022-09-09T13:41:03;19.30;99.90
53053;DHT22;38934;52.690;6.184;2022-09-09T13:43:34;19.30;99.90
53053;DHT22;38934;52.690;6.184;2022-09-09T13:46:03;19.30;99.90
53053;DHT22;38934;52.690;6.184;2022-09-09T13:48:29;19.40;99.90
53053;DHT22;38934;52.690;6.184;2022-09-09T13:51:04;19.40;99.90
53053;DHT22;38934;52.690;6.184;2022-09-09T13:53:31;19.60;99.90
53053;DHT22;38934;52.690;6.184;2022-09-09T13:55:57;19.70;99.90
53053;DHT22;38934;52.690;6.184;2022-09-09T13:58:24;19.70;99.90
53053;DHT22;38934;52.690;6.184;2022-09-09T14:00:52;19.80;99.90
53053;DHT22;38934;52.690;6.184;2022-09-09T14:03:18;19.90;99.90
53053;DHT22;38934;52.690;6.184;2022-09-09T14:05:45;20.00;99.90
53053;DHT22;38934;52.690;6.184;2022-09-09T14:08:22;20.00;99.90
53053;DHT22;38934;52.690;6.184;2022-09-09T14:10:48;20.10;99.90
53053;DHT22;38934;52.690;6.184;2022-09-09T14:13:13;19.80;99.90
53053;DHT22;38934;52.690;6.184;2022-09-09T14:15:41;19.80;99.90
53053;DHT22;38934;52.690;6.184;2022-09-09T14:18:10;19.70;99.90
53053;DHT22;38934;52.690;6.184;2022-09-09T14:20:37;19.80;99.90
53053;DHT22;38934;52.690;6.184;2022-09-09T14:23:02;19.70;99.90
53053;DHT22;38934;52.690;6.184;2022-09-09T14:25:28;19.50;99.90
53053;DHT22;38934;52.690;6.184;2022-09-09T14:27:54;19.50;99.90
53053;DHT22;38934;52.690;6.184;2022-09-09T14:30:19;19.40;99.90
53053;DHT22;38934;52.690;6.184;2022-09-09T14:32:45;19.40;99.90
53053;DHT22;38934;52.690;6.184;2022-09-09T14:35:10;19.30;99.90
53053;DHT22;38934;52.690;6.184;2022-09-09T14:37:37;19.50;99.90
53053;DHT22;38934;52.690;6.184;2022-09-09T14:40:04;19.60;99.90
53053;DHT22;38934;52.690;6.184;2022-09-09T14:42:30;19.60;99.90
53053;DHT22;38934;52.690;6.184;2022-09-09T14:44:56;19.60;99.90
53053;DHT22;38934;52.690;6.184;2022-09-09T14:47:21;19.60;99.90
53053;DHT22;38934;52.690;6.184;2022-09-09T14:49:47;19.60;99.90
53053;DHT22;38934;52.690;6.184;2022-09-09T14:52:15;19.80;99.90
53053;DHT22;38934;52.690;6.184;2022-09-09T14:54:41;19.70;99.90
53053;DHT22;38934;52.690;6.184;2022-09-09T14:57:07;19.70;99.90
53053;DHT22;38934;52.690;6.184;2022-09-09T14:59:32;19.80;99.90
53053;DHT22;38934;52.690;6.184;2022-09-09T15:01:59;19.70;99.90
53053;DHT22;38934;52.690;6.184;2022-09-09T15:04:29;19.60;99.90
53053;DHT22;38934;52.690;6.184;2022-09-09T15:06:54;19.50;99.90
53053;DHT22;38934;52.690;6.184;2022-09-09T15:09:20;19.50;99.90
53053;DHT22;38934;52.690;6.184;2022-09-09T15:11:46;19.40;99.90
53053;DHT22;38934;52.690;6.184;2022-09-09T15:14:12;19.40;99.90
53053;DHT22;38934;52.690;6.184;2022-09-09T15:16:38;19.50;99.90
53053;DHT22;38934;52.690;6.184;2022-09-09T15:19:05;19.40;99.90
53053;DHT22;38934;52.690;6.184;2022-09-09T15:21:33;19.40;99.90
53053;DHT22;38934;52.690;6.184;2022-09-09T15:23:59;19.40;99.90
53053;DHT22;38934;52.690;6.184;2022-09-09T15:26:26;19.50;99.90
53053;DHT22;38934;52.690;6.184;2022-09-09T15:28:52;19.50;99.90
53053;DHT22;38934;52.690;6.184;2022-09-09T15:31:20;19.50;99.90
53053;DHT22;38934;52.690;6.184;2022-09-09T15:33:51;19.50;99.90
53053;DHT22;38934;52.690;6.184;2022-09-09T15:36:19;19.50;99.90
53053;DHT22;38934;52.690;6.184;2022-09-09T15:38:45;19.60;99.90
53053;DHT22;38934;52.690;6.184;2022-09-09T15:41:12;19.60;99.90
53053;DHT22;38934;52.690;6.184;2022-09-09T15:43:38;19.60;99.90
53053;DHT22;38934;52.690;6.184;2022-09-09T15:48:43;19.50;99.90
53053;DHT22;38934;52.690;6.184;2022-09-09T15:51:10;19.50;99.90
53053;DHT22;38934;52.690;6.184;2022-09-09T15:53:39;19.40;99.90
53053;DHT22;38934;52.690;6.184;2022-09-09T15:56:06;19.40;99.90
53053;DHT22;38934;52.690;6.184;2022-09-09T15:58:32;19.30;99.90
53053;DHT22;38934;52.690;6.184;2022-09-09T16:01:03;19.20;99.90
53053;DHT22;38934;52.690;6.184;2022-09-09T16:03:33;19.20;99.90
53053;DHT22;38934;52.690;6.184;2022-09-09T16:05:59;19.20;99.90
53053;DHT22;38934;52.690;6.184;2022-09-09T16:08:30;19.20;99.90
53053;DHT22;38934;52.690;6.184;2022-09-09T16:10:56;19.10;99.90
53053;DHT22;38934;52.690;6.184;2022-09-09T16:13:28;18.90;99.90
53053;DHT22;38934;52.690;6.184;2022-09-09T16:15:58;19.00;99.90
53053;DHT22;38934;52.690;6.184;2022-09-09T16:18:24;18.90;99.90
53053;DHT22;38934;52.690;6.184;2022-09-09T16:20:55;18.70;99.90
53053;DHT22;38934;52.690;6.184;2022-09-09T16:23:21;18.80;99.90
53053;DHT22;38934;52.690;6.184;2022-09-09T16:25:56;18.80;99.90
53053;DHT22;38934;52.690;6.184;2022-09-09T16:28:22;18.80;99.90
53053;DHT22;38934;52.690;6.184;2022-09-09T16:30:48;18.70;99.90
53053;DHT22;38934;52.690;6.184;2022-09-09T16:33:14;18.60;99.90
53053;DHT22;38934;52.690;6.184;2022-09-09T16:35:42;18.60;99.90
53053;DHT22;38934;52.690;6.184;2022-09-09T16:38:08;19.10;99.90
53053;DHT22;38934;52.690;6.184;2022-09-09T16:40:34;18.60;99.90
53053;DHT22;38934;52.690;6.184;2022-09-09T16:43:01;18.60;99.90
53053;DHT22;38934;52.690;6.184;2022-09-09T16:45:27;18.50;99.90
53053;DHT22;38934;52.690;6.184;2022-09-09T16:47:52;18.50;99.90
53053;DHT22;38934;52.690;6.184;2022-09-09T16:50:18;18.50;99.90
53053;DHT22;38934;52.690;6.184;2022-09-09T16:52:44;18.50;99.90
53053;DHT22;38934;52.690;6.184;2022-09-09T16:55:09;18.50;99.90
53053;DHT22;38934;52.690;6.184;2022-09-09T16:57:35;18.50;99.90
53053;DHT22;38934;52.690;6.184;2022-09-09T17:00:01;18.40;99.90
53053;DHT22;38934;52.690;6.184;2022-09-09T17:02:29;18.30;99.90
53053;DHT22;38934;52.690;6.184;2022-09-09T17:04:54;18.30;99.90
53053;DHT22;38934;52.690;6.184;2022-09-09T17:07:20;18.80;99.90
53053;DHT22;38934;52.690;6.184;2022-09-09T17:09:46;18.20;99.90
53053;DHT22;38934;52.690;6.184;2022-09-09T17:12:11;18.30;99.90
53053;DHT22;38934;52.690;6.184;2022-09-09T17:14:38;18.30;99.90
53053;DHT22;38934;52.690;6.184;2022-09-09T17:17:03;18.20;99.90
53053;DHT22;38934;52.690;6.184;2022-09-09T17:19:30;18.20;99.90
53053;DHT22;38934;52.690;6.184;2022-09-09T17:21:56;18.10;99.90
53053;DHT22;38934;52.690;6.184;2022-09-09T17:24:26;18.10;99.90
53053;DHT22;38934;52.690;6.184;2022-09-09T17:26:52;18.00;99.90
53053;DHT22;38934;52.690;6.184;2022-09-09T17:29:19;17.90;99.90
53053;DHT22;38934;52.690;6.184;2022-09-09T17:31:45;17.90;99.90
53053;DHT22;38934;52.690;6.184;2022-09-09T17:34:10;17.80;99.90
53053;DHT22;38934;52.690;6.184;2022-09-09T17:36:37;17.80;99.90
53053;DHT22;38934;52.690;6.184;2022-09-09T17:39:04;17.80;99.90
53053;DHT22;38934;52.690;6.184;2022-09-09T17:41:32;17.90;99.90
53053;DHT22;38934;52.690;6.184;2022-09-09T17:43:58;17.60;99.90
53053;DHT22;38934;52.690;6.184;2022-09-09T17:46:36;17.60;99.90